sensor_id;sensor_type;location;lat;lon;timestamp;pressure;altitude;pressure_sealevel;temperature;humidity
28181;BME280;15464;50.988;10.318;2023-04-26T00:02:16;98993.63;;;4.35;70.34
28181;BME280;15464;50.988;10.318;2023-04-26T00:04:44;98990.91;;;4.37;70.68
28181;BME280;15464;50.988;10.318;2023-04-26T00:07:13;98994.56;;;4.34;70.69
28181;BME280;15464;50.988;10.318;2023-04-26T00:09:41;98998.75;;;4.23;69.82
28181;BME280;15464;50.988;10.318;2023-04-26T00:12:09;98998.44;;;4.13;69.68
28181;BME280;15464;50.988;10.318;2023-04-26T00:14:37;99005.25;;;4.01;70.18
28181;BME280;15464;50.988;10.318;2023-04-26T00:17:04;98999.25;;;3.99;70.93
28181;BME280;15464;50.988;10.318;2023-04-26T00:19:30;99007.13;;;3.99;71.96
28181;BME280;15464;50.988;10.318;2023-04-26T00:21:57;99007.47;;;3.93;71.68
28181;BME280;15464;50.988;10.318;2023-04-26T00:24:24;99009.34;;;3.76;72.14
28181;BME280;15464;50.988;10.318;2023-04-26T00:26:54;99004.56;;;3.68;71.70
28181;BME280;15464;50.988;10.318;2023-04-26T00:29:21;99003.78;;;3.66;72.23
28181;BME280;15464;50.988;10.318;2023-04-26T00:31:48;99003.78;;;3.66;72.27
28181;BME280;15464;50.988;10.318;2023-04-26T00:34:14;99010.38;;;3.57;72.44
28181;BME280;15464;50.988;10.318;2023-04-26T00:36:41;99018.94;;;3.45;73.00
28181;BME280;15464;50.988;10.318;2023-04-26T00:39:08;99009.22;;;3.32;73.91
28181;BME280;15464;50.988;10.318;2023-04-26T00:41:35;99013.59;;;3.31;74.04
28181;BME280;15464;50.988;10.318;2023-04-26T00:44:02;99017.25;;;3.29;73.23
28181;BME280;15464;50.988;10.318;2023-04-26T00:46:29;99017.66;;;3.21;73.35
28181;BME280;15464;50.988;10.318;2023-04-26T00:48:56;99011.50;;;3.22;73.69
28181;BME280;15464;50.988;10.318;2023-04-26T00:51:23;99008.44;;;3.14;73.14
28181;BME280;15464;50.988;10.318;2023-04-26T00:53:50;99003.59;;;3.06;73.74
28181;BME280;15464;50.988;10.318;2023-04-26T00:56:16;99007.50;;;2.99;73.42
28181;BME280;15464;50.988;10.318;2023-04-26T00:58:44;99012.75;;;2.99;73.76
28181;BME280;15464;50.988;10.318;2023-04-26T01:01:11;99004.44;;;2.91;74.52
28181;BME280;15464;50.988;10.318;2023-04-26T01:03:38;99006.47;;;2.86;74.67
28181;BME280;15464;50.988;10.318;2023-04-26T01:06:06;98998.00;;;2.81;74.11
28181;BME280;15464;50.988;10.318;2023-04-26T01:08:32;99007.97;;;2.74;74.97
28181;BME280;15464;50.988;10.318;2023-04-26T01:10:59;99009.44;;;2.63;75.57
28181;BME280;15464;50.988;10.318;2023-04-26T01:13:26;99019.31;;;2.58;75.71
28181;BME280;15464;50.988;10.318;2023-04-26T01:15:54;99020.53;;;2.51;75.28
28181;BME280;15464;50.988;10.318;2023-04-26T01:18:21;99036.41;;;2.48;74.83
28181;BME280;15464;50.988;10.318;2023-04-26T01:20:48;99026.81;;;2.48;76.89
28181;BME280;15464;50.988;10.318;2023-04-26T01:23:14;99024.19;;;2.48;77.19
28181;BME280;15464;50.988;10.318;2023-04-26T01:25:42;99034.91;;;2.43;77.12
28181;BME280;15464;50.988;10.318;2023-04-26T01:28:09;99027.56;;;2.33;77.24
28181;BME280;15464;50.988;10.318;2023-04-26T01:30:35;99030.56;;;2.25;77.22
28181;BME280;15464;50.988;10.318;2023-04-26T01:33:02;99036.09;;;2.19;77.47
28181;BME280;15464;50.988;10.318;2023-04-26T01:35:29;99037.19;;;2.15;77.53
28181;BME280;15464;50.988;10.318;2023-04-26T01:37:55;99038.34;;;2.10;77.74
28181;BME280;15464;50.988;10.318;2023-04-26T01:40:22;99037.66;;;2.06;77.89
28181;BME280;15464;50.988;10.318;2023-04-26T01:42:49;99034.94;;;2.08;78.41
28181;BME280;15464;50.988;10.318;2023-04-26T01:45:15;99036.72;;;2.07;77.94
28181;BME280;15464;50.988;10.318;2023-04-26T01:47:42;99033.66;;;1.99;78.57
28181;BME280;15464;50.988;10.318;2023-04-26T01:50:10;99029.47;;;1.95;78.71
28181;BME280;15464;50.988;10.318;2023-04-26T01:52:36;99036.56;;;1.93;80.18
28181;BME280;15464;50.988;10.318;2023-04-26T01:55:03;99031.53;;;1.88;79.93
28181;BME280;15464;50.988;10.318;2023-04-26T01:57:30;99035.09;;;1.87;79.34
28181;BME280;15464;50.988;10.318;2023-04-26T01:59:57;99028.84;;;1.90;79.18
28181;BME280;15464;50.988;10.318;2023-04-26T02:02:24;99030.69;;;1.88;79.41
28181;BME280;15464;50.988;10.318;2023-04-26T02:04:51;99029.16;;;1.84;79.99
28181;BME280;15464;50.988;10.318;2023-04-26T02:07:18;99029.31;;;1.81;79.29
28181;BME280;15464;50.988;10.318;2023-04-26T02:09:45;99031.28;;;1.76;79.83
28181;BME280;15464;50.988;10.318;2023-04-26T02:12:12;99027.22;;;1.70;79.63
28181;BME280;15464;50.988;10.318;2023-04-26T02:14:38;99033.66;;;1.63;79.59
28181;BME280;15464;50.988;10.318;2023-04-26T02:17:05;99035.34;;;1.64;79.38
28181;BME280;15464;50.988;10.318;2023-04-26T02:19:32;99032.97;;;1.59;79.56
28181;BME280;15464;50.988;10.318;2023-04-26T02:21:58;99031.50;;;1.54;80.10
28181;BME280;15464;50.988;10.318;2023-04-26T02:24:25;99033.59;;;1.46;80.22
28181;BME280;15464;50.988;10.318;2023-04-26T02:26:52;99037.22;;;1.43;79.65
28181;BME280;15464;50.988;10.318;2023-04-26T02:29:20;99032.91;;;1.42;79.42
28181;BME280;15464;50.988;10.318;2023-04-26T02:32:05;99035.72;;;1.38;79.83
28181;BME280;15464;50.988;10.318;2023-04-26T02:34:33;99039.41;;;1.34;80.06
28181;BME280;15464;50.988;10.318;2023-04-26T02:36:59;99033.63;;;1.27;79.60
28181;BME280;15464;50.988;10.318;2023-04-26T02:39:27;99037.03;;;1.29;80.15
28181;BME280;15464;50.988;10.318;2023-04-26T02:41:53;99024.19;;;1.25;79.92
28181;BME280;15464;50.988;10.318;2023-04-26T02:44:20;99033.91;;;1.21;80.25
28181;BME280;15464;50.988;10.318;2023-04-26T02:46:47;99029.03;;;1.13;80.23
28181;BME280;15464;50.988;10.318;2023-04-26T02:49:13;99035.59;;;1.03;81.09
28181;BME280;15464;50.988;10.318;2023-04-26T02:51:40;99032.34;;;0.98;80.63
28181;BME280;15464;50.988;10.318;2023-04-26T02:54:06;99025.50;;;0.96;81.25
28181;BME280;15464;50.988;10.318;2023-04-26T02:56:33;99027.34;;;0.94;80.57
28181;BME280;15464;50.988;10.318;2023-04-26T02:59:00;99035.31;;;0.91;81.16
28181;BME280;15464;50.988;10.318;2023-04-26T03:01:27;99030.13;;;0.89;80.53
28181;BME280;15464;50.988;10.318;2023-04-26T03:03:53;99036.53;;;0.82;81.66
28181;BME280;15464;50.988;10.318;2023-04-26T03:06:20;99033.09;;;0.81;80.36
28181;BME280;15464;50.988;10.318;2023-04-26T03:08:47;99038.31;;;0.81;80.43
28181;BME280;15464;50.988;10.318;2023-04-26T03:11:13;99041.19;;;0.75;80.73
28181;BME280;15464;50.988;10.318;2023-04-26T03:13:40;99036.97;;;0.73;80.33
28181;BME280;15464;50.988;10.318;2023-04-26T03:16:07;99038.94;;;0.68;80.53
28181;BME280;15464;50.988;10.318;2023-04-26T03:18:33;99036.38;;;0.66;80.52
28181;BME280;15464;50.988;10.318;2023-04-26T03:21:01;99037.38;;;0.64;80.27
28181;BME280;15464;50.988;10.318;2023-04-26T03:23:27;99040.88;;;0.63;80.46
28181;BME280;15464;50.988;10.318;2023-04-26T03:25:54;99039.31;;;0.59;81.26
28181;BME280;15464;50.988;10.318;2023-04-26T03:28:21;99045.66;;;0.53;80.54
28181;BME280;15464;50.988;10.318;2023-04-26T03:30:48;99042.41;;;0.48;81.11
28181;BME280;15464;50.988;10.318;2023-04-26T03:33:17;99040.81;;;0.44;81.27
28181;BME280;15464;50.988;10.318;2023-04-26T03:35:43;99049.72;;;0.40;82.41
28181;BME280;15464;50.988;10.318;2023-04-26T03:38:10;99050.81;;;0.34;82.30
28181;BME280;15464;50.988;10.318;2023-04-26T03:40:37;99039.53;;;0.34;81.46
28181;BME280;15464;50.988;10.318;2023-04-26T03:43:04;99049.13;;;0.33;81.26
28181;BME280;15464;50.988;10.318;2023-04-26T03:45:30;99044.75;;;0.34;80.93
28181;BME280;15464;50.988;10.318;2023-04-26T03:47:57;99051.09;;;0.28;82.95
28181;BME280;15464;50.988;10.318;2023-04-26T03:50:23;99060.81;;;0.25;82.39
28181;BME280;15464;50.988;10.318;2023-04-26T03:52:50;99058.25;;;0.23;81.93
28181;BME280;15464;50.988;10.318;2023-04-26T03:55:17;99055.00;;;0.18;82.18
28181;BME280;15464;50.988;10.318;2023-04-26T03:57:44;99059.47;;;0.15;82.52
28181;BME280;15464;50.988;10.318;2023-04-26T04:00:11;99058.56;;;0.16;82.02
28181;BME280;15464;50.988;10.318;2023-04-26T04:02:40;99058.56;;;0.16;83.25
28181;BME280;15464;50.988;10.318;2023-04-26T04:05:07;99053.28;;;0.17;83.39
28181;BME280;15464;50.988;10.318;2023-04-26T04:07:34;99056.81;;;0.16;83.14
28181;BME280;15464;50.988;10.318;2023-04-26T04:10:01;99051.72;;;0.13;83.60
28181;BME280;15464;50.988;10.318;2023-04-26T04:12:28;99052.72;;;0.11;83.70
28181;BME280;15464;50.988;10.318;2023-04-26T04:14:55;99057.91;;;0.11;84.02
28181;BME280;15464;50.988;10.318;2023-04-26T04:17:21;99064.03;;;0.10;83.96
28181;BME280;15464;50.988;10.318;2023-04-26T04:19:48;99061.53;;;0.07;84.88
28181;BME280;15464;50.988;10.318;2023-04-26T04:22:14;99059.06;;;0.04;85.24
28181;BME280;15464;50.988;10.318;2023-04-26T04:24:41;99050.47;;;0.02;84.72
28181;BME280;15464;50.988;10.318;2023-04-26T04:27:09;99053.16;;;0.00;85.63
28181;BME280;15464;50.988;10.318;2023-04-26T04:29:37;99060.25;;;-0.04;85.26
28181;BME280;15464;50.988;10.318;2023-04-26T04:32:04;99056.72;;;-0.03;85.35
28181;BME280;15464;50.988;10.318;2023-04-26T04:34:35;99056.72;;;-0.03;85.88
28181;BME280;15464;50.988;10.318;2023-04-26T04:37:02;99059.19;;;0.00;86.12
28181;BME280;15464;50.988;10.318;2023-04-26T04:39:29;99064.41;;;0.00;85.38
28181;BME280;15464;50.988;10.318;2023-04-26T04:41:56;99063.63;;;-0.02;85.78
28181;BME280;15464;50.988;10.318;2023-04-26T04:44:23;99064.41;;;0.00;86.42
28181;BME280;15464;50.988;10.318;2023-04-26T04:46:52;99070.56;;;-0.01;86.10
28181;BME280;15464;50.988;10.318;2023-04-26T04:49:19;99067.00;;;0.00;85.50
28181;BME280;15464;50.988;10.318;2023-04-26T04:51:46;99070.41;;;0.03;86.13
28181;BME280;15464;50.988;10.318;2023-04-26T04:54:15;99070.16;;;0.09;86.96
28181;BME280;15464;50.988;10.318;2023-04-26T04:56:42;99073.16;;;0.20;87.08
28181;BME280;15464;50.988;10.318;2023-04-26T04:59:10;99073.75;;;0.26;88.39
28181;BME280;15464;50.988;10.318;2023-04-26T05:01:37;99079.53;;;0.34;88.99
28181;BME280;15464;50.988;10.318;2023-04-26T05:04:04;99071.22;;;0.45;88.26
28181;BME280;15464;50.988;10.318;2023-04-26T05:06:32;99082.09;;;0.56;89.02
28181;BME280;15464;50.988;10.318;2023-04-26T05:08:59;99080.22;;;0.58;89.04
28181;BME280;15464;50.988;10.318;2023-04-26T05:11:27;99085.34;;;0.61;88.61
28181;BME280;15464;50.988;10.318;2023-04-26T05:13:53;99087.75;;;0.66;88.69
28181;BME280;15464;50.988;10.318;2023-04-26T05:16:21;99089.38;;;0.68;87.58
28181;BME280;15464;50.988;10.318;2023-04-26T05:18:48;99074.47;;;0.70;88.32
28181;BME280;15464;50.988;10.318;2023-04-26T05:21:14;99086.41;;;0.76;87.92
28181;BME280;15464;50.988;10.318;2023-04-26T05:23:41;99087.91;;;0.81;88.52
28181;BME280;15464;50.988;10.318;2023-04-26T05:26:14;99098.09;;;0.88;87.76
28181;BME280;15464;50.988;10.318;2023-04-26T05:28:41;99092.81;;;0.89;87.77
28181;BME280;15464;50.988;10.318;2023-04-26T05:31:08;99090.94;;;0.93;88.06
28181;BME280;15464;50.988;10.318;2023-04-26T05:33:37;99089.84;;;0.97;88.08
28181;BME280;15464;50.988;10.318;2023-04-26T05:36:04;99094.88;;;1.01;88.97
28181;BME280;15464;50.988;10.318;2023-04-26T05:38:31;99100.66;;;1.08;88.54
28181;BME280;15464;50.988;10.318;2023-04-26T05:40:57;99105.50;;;1.17;88.74
28181;BME280;15464;50.988;10.318;2023-04-26T05:43:24;99109.53;;;1.24;88.79
28181;BME280;15464;50.988;10.318;2023-04-26T05:45:52;99118.81;;;1.31;89.45
28181;BME280;15464;50.988;10.318;2023-04-26T05:48:20;99117.50;;;1.40;89.57
28181;BME280;15464;50.988;10.318;2023-04-26T05:50:48;99112.84;;;1.46;90.09
28181;BME280;15464;50.988;10.318;2023-04-26T05:53:15;99115.97;;;1.54;89.89
28181;BME280;15464;50.988;10.318;2023-04-26T05:55:42;99117.41;;;1.61;89.56
28181;BME280;15464;50.988;10.318;2023-04-26T05:58:10;99115.25;;;1.70;89.19
28181;BME280;15464;50.988;10.318;2023-04-26T06:00:37;99117.50;;;1.77;89.61
28181;BME280;15464;50.988;10.318;2023-04-26T06:03:07;99114.38;;;1.88;89.39
28181;BME280;15464;50.988;10.318;2023-04-26T06:05:35;99115.66;;;1.98;88.87
28181;BME280;15464;50.988;10.318;2023-04-26T06:08:04;99122.13;;;2.08;90.00
28181;BME280;15464;50.988;10.318;2023-04-26T06:10:30;99124.31;;;2.17;89.01
28181;BME280;15464;50.988;10.318;2023-04-26T06:12:57;99122.00;;;2.28;89.73
28181;BME280;15464;50.988;10.318;2023-04-26T06:15:24;99115.41;;;2.38;88.31
28181;BME280;15464;50.988;10.318;2023-04-26T06:17:50;99117.72;;;2.62;86.80
28181;BME280;15464;50.988;10.318;2023-04-26T06:20:17;99116.34;;;2.72;87.54
28181;BME280;15464;50.988;10.318;2023-04-26T06:22:44;99113.63;;;2.91;85.48
28181;BME280;15464;50.988;10.318;2023-04-26T06:25:11;99117.63;;;2.98;85.53
28181;BME280;15464;50.988;10.318;2023-04-26T06:27:37;99119.84;;;3.05;86.24
28181;BME280;15464;50.988;10.318;2023-04-26T06:30:05;99116.13;;;3.09;85.33
28181;BME280;15464;50.988;10.318;2023-04-26T06:32:33;99121.25;;;3.28;85.61
28181;BME280;15464;50.988;10.318;2023-04-26T06:35:00;99120.34;;;3.45;84.83
28181;BME280;15464;50.988;10.318;2023-04-26T06:37:27;99122.41;;;3.55;83.11
28181;BME280;15464;50.988;10.318;2023-04-26T06:39:53;99130.97;;;3.75;82.29
28181;BME280;15464;50.988;10.318;2023-04-26T06:42:20;99117.91;;;3.89;82.14
28181;BME280;15464;50.988;10.318;2023-04-26T06:44:47;99129.00;;;3.94;81.63
28181;BME280;15464;50.988;10.318;2023-04-26T06:47:14;99123.06;;;4.22;79.19
28181;BME280;15464;50.988;10.318;2023-04-26T06:49:41;99124.28;;;4.46;77.98
28181;BME280;15464;50.988;10.318;2023-04-26T06:52:07;99127.53;;;4.65;75.96
28181;BME280;15464;50.988;10.318;2023-04-26T06:54:35;99126.66;;;4.80;75.22
28181;BME280;15464;50.988;10.318;2023-04-26T06:57:19;99124.50;;;5.01;73.30
28181;BME280;15464;50.988;10.318;2023-04-26T06:59:45;99132.69;;;5.25;73.11
28181;BME280;15464;50.988;10.318;2023-04-26T07:02:12;99121.91;;;5.44;71.96
28181;BME280;15464;50.988;10.318;2023-04-26T07:04:41;99122.06;;;5.69;71.44
28181;BME280;15464;50.988;10.318;2023-04-26T07:07:08;99123.13;;;5.81;71.16
28181;BME280;15464;50.988;10.318;2023-04-26T07:09:38;99127.34;;;5.97;69.49
28181;BME280;15464;50.988;10.318;2023-04-26T07:12:05;99122.63;;;6.29;69.34
28181;BME280;15464;50.988;10.318;2023-04-26T07:14:32;99126.03;;;6.44;67.99
28181;BME280;15464;50.988;10.318;2023-04-26T07:17:03;99136.22;;;6.09;67.98
28181;BME280;15464;50.988;10.318;2023-04-26T07:19:30;99125.88;;;6.60;67.42
28181;BME280;15464;50.988;10.318;2023-04-26T07:21:57;99126.28;;;6.54;67.18
28181;BME280;15464;50.988;10.318;2023-04-26T07:24:24;99122.13;;;6.76;67.19
28181;BME280;15464;50.988;10.318;2023-04-26T07:26:51;99126.09;;;6.69;65.68
28181;BME280;15464;50.988;10.318;2023-04-26T07:29:18;99125.94;;;6.85;65.94
28181;BME280;15464;50.988;10.318;2023-04-26T07:31:45;99126.25;;;7.18;66.45
28181;BME280;15464;50.988;10.318;2023-04-26T07:34:11;99123.44;;;7.21;64.94
28181;BME280;15464;50.988;10.318;2023-04-26T07:36:38;99123.22;;;6.99;63.20
28181;BME280;15464;50.988;10.318;2023-04-26T07:39:05;99125.53;;;6.91;62.90
28181;BME280;15464;50.988;10.318;2023-04-26T07:41:32;99126.16;;;6.95;62.19
28181;BME280;15464;50.988;10.318;2023-04-26T07:43:58;99121.09;;;6.92;61.62
28181;BME280;15464;50.988;10.318;2023-04-26T07:46:25;99124.59;;;7.05;61.95
28181;BME280;15464;50.988;10.318;2023-04-26T07:48:52;99129.63;;;6.95;61.24
28181;BME280;15464;50.988;10.318;2023-04-26T07:51:19;99133.75;;;6.86;62.49
28181;BME280;15464;50.988;10.318;2023-04-26T07:53:46;99128.50;;;7.24;60.67
28181;BME280;15464;50.988;10.318;2023-04-26T07:56:13;99123.84;;;7.15;59.30
28181;BME280;15464;50.988;10.318;2023-04-26T07:58:40;99124.88;;;7.13;59.27
28181;BME280;15464;50.988;10.318;2023-04-26T08:01:07;99124.88;;;7.00;57.64
28181;BME280;15464;50.988;10.318;2023-04-26T08:03:35;99128.69;;;7.47;57.60
28181;BME280;15464;50.988;10.318;2023-04-26T08:06:02;99135.44;;;7.51;58.00
28181;BME280;15464;50.988;10.318;2023-04-26T08:08:29;99129.44;;;7.49;58.78
28181;BME280;15464;50.988;10.318;2023-04-26T08:10:57;99127.53;;;7.25;57.55
28181;BME280;15464;50.988;10.318;2023-04-26T08:13:24;99132.59;;;7.03;57.54
28181;BME280;15464;50.988;10.318;2023-04-26T08:15:54;99137.06;;;6.63;57.01
28181;BME280;15464;50.988;10.318;2023-04-26T08:18:21;99139.03;;;6.99;57.25
28181;BME280;15464;50.988;10.318;2023-04-26T08:20:48;99127.84;;;7.21;55.79
28181;BME280;15464;50.988;10.318;2023-04-26T08:23:14;99120.22;;;7.67;54.67
28181;BME280;15464;50.988;10.318;2023-04-26T08:25:41;99117.47;;;7.68;53.10
28181;BME280;15464;50.988;10.318;2023-04-26T08:28:08;99115.22;;;7.75;52.87
28181;BME280;15464;50.988;10.318;2023-04-26T08:30:34;99108.06;;;7.77;51.04
28181;BME280;15464;50.988;10.318;2023-04-26T08:33:01;99117.09;;;7.49;50.71
28181;BME280;15464;50.988;10.318;2023-04-26T08:35:28;99113.28;;;7.41;51.50
28181;BME280;15464;50.988;10.318;2023-04-26T08:37:55;99122.38;;;7.37;52.17
28181;BME280;15464;50.988;10.318;2023-04-26T08:40:23;99114.34;;;7.38;51.61
28181;BME280;15464;50.988;10.318;2023-04-26T08:42:51;99118.47;;;7.17;51.98
28181;BME280;15464;50.988;10.318;2023-04-26T08:45:20;99124.59;;;7.17;52.40
28181;BME280;15464;50.988;10.318;2023-04-26T08:47:52;99117.31;;;7.21;52.46
28181;BME280;15464;50.988;10.318;2023-04-26T08:50:22;99119.94;;;7.21;52.25
28181;BME280;15464;50.988;10.318;2023-04-26T08:52:50;99112.44;;;7.15;51.90
28181;BME280;15464;50.988;10.318;2023-04-26T08:55:18;99107.59;;;7.21;51.59
28181;BME280;15464;50.988;10.318;2023-04-26T08:57:47;99105.38;;;7.41;50.84
28181;BME280;15464;50.988;10.318;2023-04-26T09:00:15;99096.09;;;7.48;51.47
28181;BME280;15464;50.988;10.318;2023-04-26T09:02:49;99097.47;;;7.41;50.48
28181;BME280;15464;50.988;10.318;2023-04-26T09:05:19;99103.78;;;7.38;50.85
28181;BME280;15464;50.988;10.318;2023-04-26T09:07:51;99095.41;;;7.57;50.39
28181;BME280;15464;50.988;10.318;2023-04-26T09:10:20;99101.88;;;7.53;50.34
28181;BME280;15464;50.988;10.318;2023-04-26T09:12:54;99113.50;;;7.12;51.71
28181;BME280;15464;50.988;10.318;2023-04-26T09:15:23;99110.56;;;7.04;50.58
28181;BME280;15464;50.988;10.318;2023-04-26T09:17:50;99115.31;;;6.99;51.30
28181;BME280;15464;50.988;10.318;2023-04-26T09:20:29;99117.72;;;7.27;50.37
28181;BME280;15464;50.988;10.318;2023-04-26T09:25:30;99102.06;;;7.50;50.84
28181;BME280;15464;50.988;10.318;2023-04-26T09:27:58;99117.09;;;7.37;51.34
28181;BME280;15464;50.988;10.318;2023-04-26T09:30:26;99101.56;;;7.45;50.14
28181;BME280;15464;50.988;10.318;2023-04-26T09:33:00;99105.56;;;7.50;50.25
28181;BME280;15464;50.988;10.318;2023-04-26T09:35:35;99109.69;;;7.54;50.78
28181;BME280;15464;50.988;10.318;2023-04-26T09:38:07;99117.63;;;7.42;50.48
28181;BME280;15464;50.988;10.318;2023-04-26T09:40:44;99119.41;;;7.54;49.99
28181;BME280;15464;50.988;10.318;2023-04-26T09:43:19;99107.78;;;7.44;48.96
28181;BME280;15464;50.988;10.318;2023-04-26T09:45:55;99111.16;;;7.46;49.08
28181;BME280;15464;50.988;10.318;2023-04-26T09:48:27;99108.03;;;7.28;50.10
28181;BME280;15464;50.988;10.318;2023-04-26T09:53:34;99113.91;;;7.06;50.31
28181;BME280;15464;50.988;10.318;2023-04-26T09:58:58;99119.59;;;7.00;51.37
28181;BME280;15464;50.988;10.318;2023-04-26T10:01:27;99114.75;;;7.19;51.26
28181;BME280;15464;50.988;10.318;2023-04-26T10:03:56;99109.28;;;7.10;50.17
28181;BME280;15464;50.988;10.318;2023-04-26T10:06:23;99118.34;;;7.31;50.62
28181;BME280;15464;50.988;10.318;2023-04-26T10:08:50;99115.69;;;7.44;50.71
28181;BME280;15464;50.988;10.318;2023-04-26T10:11:17;99121.53;;;7.49;50.38
28181;BME280;15464;50.988;10.318;2023-04-26T10:13:44;99116.22;;;7.61;50.16
28181;BME280;15464;50.988;10.318;2023-04-26T10:16:11;99112.28;;;7.80;49.59
28181;BME280;15464;50.988;10.318;2023-04-26T10:18:37;99115.53;;;7.83;49.57
28181;BME280;15464;50.988;10.318;2023-04-26T10:23:44;99106.38;;;8.00;48.49
28181;BME280;15464;50.988;10.318;2023-04-26T10:29:22;99100.91;;;8.03;47.80
28181;BME280;15464;50.988;10.318;2023-04-26T10:32:07;99102.16;;;8.10;46.94
28181;BME280;15464;50.988;10.318;2023-04-26T10:34:36;99103.19;;;8.07;45.99
28181;BME280;15464;50.988;10.318;2023-04-26T10:37:12;99109.28;;;8.21;47.60
28181;BME280;15464;50.988;10.318;2023-04-26T10:39:44;99108.88;;;8.14;47.25
28181;BME280;15464;50.988;10.318;2023-04-26T10:42:24;99107.47;;;7.97;46.98
28181;BME280;15464;50.988;10.318;2023-04-26T10:44:58;99104.00;;;8.21;46.75
28181;BME280;15464;50.988;10.318;2023-04-26T10:47:33;99108.09;;;8.25;45.28
28181;BME280;15464;50.988;10.318;2023-04-26T10:50:09;99100.91;;;8.27;46.31
28181;BME280;15464;50.988;10.318;2023-04-26T10:52:38;99102.22;;;8.45;45.79
28181;BME280;15464;50.988;10.318;2023-04-26T10:55:56;99100.34;;;8.58;46.33
28181;BME280;15464;50.988;10.318;2023-04-26T10:58:27;99101.75;;;8.51;45.85
28181;BME280;15464;50.988;10.318;2023-04-26T11:03:29;99100.00;;;8.98;46.13
28181;BME280;15464;50.988;10.318;2023-04-26T11:05:57;99090.84;;;9.02;46.87
28181;BME280;15464;50.988;10.318;2023-04-26T11:13:46;99083.47;;;8.83;45.78
28181;BME280;15464;50.988;10.318;2023-04-26T11:16:14;99085.19;;;9.06;44.79
28181;BME280;15464;50.988;10.318;2023-04-26T11:18:46;99088.94;;;9.04;43.73
28181;BME280;15464;50.988;10.318;2023-04-26T11:21:13;99076.56;;;9.15;42.93
28181;BME280;15464;50.988;10.318;2023-04-26T11:23:52;99076.47;;;9.28;44.29
28181;BME280;15464;50.988;10.318;2023-04-26T11:26:19;99073.44;;;9.32;45.33
28181;BME280;15464;50.988;10.318;2023-04-26T11:28:47;99072.81;;;9.07;42.94
28181;BME280;15464;50.988;10.318;2023-04-26T11:31:17;99067.06;;;9.02;43.91
28181;BME280;15464;50.988;10.318;2023-04-26T11:33:44;99066.59;;;9.30;44.61
28181;BME280;15464;50.988;10.318;2023-04-26T11:36:13;99068.81;;;8.79;43.13
28181;BME280;15464;50.988;10.318;2023-04-26T11:38:40;99069.00;;;9.11;44.10
28181;BME280;15464;50.988;10.318;2023-04-26T11:41:07;99068.03;;;9.34;44.17
28181;BME280;15464;50.988;10.318;2023-04-26T11:43:35;99063.47;;;9.58;44.15
28181;BME280;15464;50.988;10.318;2023-04-26T11:46:03;99064.16;;;9.83;44.59
28181;BME280;15464;50.988;10.318;2023-04-26T11:48:32;99070.63;;;9.90;45.43
28181;BME280;15464;50.988;10.318;2023-04-26T11:51:02;99070.69;;;9.34;44.00
28181;BME280;15464;50.988;10.318;2023-04-26T11:53:39;99058.66;;;9.30;44.29
28181;BME280;15464;50.988;10.318;2023-04-26T11:58:46;99058.81;;;10.05;44.18
28181;BME280;15464;50.988;10.318;2023-04-26T12:01:22;99068.13;;;10.31;44.42
28181;BME280;15464;50.988;10.318;2023-04-26T12:03:58;99074.50;;;9.86;43.21
28181;BME280;15464;50.988;10.318;2023-04-26T12:06:31;99061.81;;;10.11;42.21
28181;BME280;15464;50.988;10.318;2023-04-26T12:09:01;99070.06;;;9.86;43.00
28181;BME280;15464;50.988;10.318;2023-04-26T12:11:30;99069.19;;;9.97;42.93
28181;BME280;15464;50.988;10.318;2023-04-26T12:13:57;99068.84;;;9.79;42.81
28181;BME280;15464;50.988;10.318;2023-04-26T12:16:24;99066.69;;;9.62;42.52
28181;BME280;15464;50.988;10.318;2023-04-26T12:18:53;99074.78;;;9.49;42.61
28181;BME280;15464;50.988;10.318;2023-04-26T12:21:22;99076.47;;;9.39;42.56
28181;BME280;15464;50.988;10.318;2023-04-26T12:23:56;99075.13;;;9.45;43.45
28181;BME280;15464;50.988;10.318;2023-04-26T12:26:42;99063.69;;;9.44;43.52
28181;BME280;15464;50.988;10.318;2023-04-26T12:29:10;99059.13;;;9.46;43.89
28181;BME280;15464;50.988;10.318;2023-04-26T12:31:37;99063.22;;;9.39;43.22
28181;BME280;15464;50.988;10.318;2023-04-26T12:34:03;99067.09;;;9.35;44.47
28181;BME280;15464;50.988;10.318;2023-04-26T12:36:30;99066.00;;;9.60;43.63
28181;BME280;15464;50.988;10.318;2023-04-26T12:38:57;99062.19;;;9.96;43.04
28181;BME280;15464;50.988;10.318;2023-04-26T12:41:24;99065.75;;;10.28;43.32
28181;BME280;15464;50.988;10.318;2023-04-26T12:43:50;99063.00;;;10.07;42.25
28181;BME280;15464;50.988;10.318;2023-04-26T12:46:17;99061.91;;;10.21;42.54
28181;BME280;15464;50.988;10.318;2023-04-26T12:48:43;99066.25;;;10.22;42.52
28181;BME280;15464;50.988;10.318;2023-04-26T12:51:10;99067.78;;;10.25;42.72
28181;BME280;15464;50.988;10.318;2023-04-26T12:53:37;99070.28;;;9.83;43.70
28181;BME280;15464;50.988;10.318;2023-04-26T12:56:04;99065.91;;;10.04;43.10
28181;BME280;15464;50.988;10.318;2023-04-26T12:58:30;99065.19;;;10.02;44.85
28181;BME280;15464;50.988;10.318;2023-04-26T13:00:57;99062.41;;;10.04;43.70
28181;BME280;15464;50.988;10.318;2023-04-26T13:03:24;99070.50;;;10.45;42.72
28181;BME280;15464;50.988;10.318;2023-04-26T13:05:51;99065.88;;;10.16;40.59
28181;BME280;15464;50.988;10.318;2023-04-26T13:08:18;99068.28;;;10.19;41.82
28181;BME280;15464;50.988;10.318;2023-04-26T13:10:44;99062.38;;;10.26;42.17
28181;BME280;15464;50.988;10.318;2023-04-26T13:13:11;99058.94;;;10.03;41.66
28181;BME280;15464;50.988;10.318;2023-04-26T13:15:38;99064.28;;;10.35;43.18
28181;BME280;15464;50.988;10.318;2023-04-26T13:18:05;99060.56;;;10.16;42.87
28181;BME280;15464;50.988;10.318;2023-04-26T13:20:32;99064.28;;;10.35;42.49
28181;BME280;15464;50.988;10.318;2023-04-26T13:22:58;99061.69;;;10.02;41.07
28181;BME280;15464;50.988;10.318;2023-04-26T13:25:25;99068.72;;;9.92;41.92
28181;BME280;15464;50.988;10.318;2023-04-26T13:27:52;99065.81;;;9.95;41.70
28181;BME280;15464;50.988;10.318;2023-04-26T13:30:20;99061.69;;;10.02;43.34